createdAt,value
2022-12-01T00:04:55.612Z,20.34
2022-12-01T00:11:33.496Z,20.24
2022-12-01T00:18:02.579Z,20.2
2022-12-01T00:24:37.727Z,20.1
2022-12-01T00:31:08.499Z,20.11
2022-12-01T00:37:35.566Z,20.01
2022-12-01T00:44:14.697Z,20.04
2022-12-01T00:50:39.147Z,20.03
2022-12-01T00:57:06.614Z,20.19
2022-12-01T01:03:34.694Z,20.03
2022-12-01T01:10:13.686Z,20.09
2022-12-01T01:16:47.559Z,20.02
2022-12-01T01:23:23.510Z,20.11
2022-12-01T01:30:02.658Z,20.09
2022-12-01T01:36:34.516Z,19.96
2022-12-01T01:42:57.657Z,19.93
2022-12-01T01:49:54.731Z,19.96
2022-12-01T01:56:39.231Z,19.88
2022-12-01T02:03:22.750Z,19.87
2022-12-01T02:09:58.638Z,19.86
2022-12-01T02:17:03.662Z,19.87
2022-12-01T02:24:03.005Z,19.88
2022-12-01T02:30:53.726Z,19.77
2022-12-01T02:37:37.894Z,19.77
2022-12-01T02:44:55.657Z,19.84
2022-12-01T02:51:51.177Z,19.88
2022-12-01T02:58:24.560Z,19.88
2022-12-01T03:05:16.755Z,19.79
2022-12-01T03:12:14.582Z,19.98
2022-12-01T03:19:23.960Z,19.89
2022-12-01T03:26:29.063Z,19.96
2022-12-01T03:33:15.615Z,19.94
2022-12-01T03:40:21.716Z,20.02
2022-12-01T03:47:33.751Z,19.97
2022-12-01T03:54:18.860Z,19.81
2022-12-01T04:01:18.714Z,19.92
2022-12-01T04:07:58.679Z,19.82
2022-12-01T04:14:25.740Z,19.82
2022-12-01T04:21:02.682Z,19.86
2022-12-01T04:27:24.920Z,19.85
2022-12-01T04:33:52.697Z,19.83
2022-12-01T04:40:33.514Z,20.08
2022-12-01T04:47:03.887Z,21.12
2022-12-01T04:53:42.160Z,21.33
2022-12-01T05:00:15.712Z,21.59
2022-12-01T05:06:59.712Z,21.6
2022-12-01T05:13:31.798Z,21.61
2022-12-01T05:20:07.807Z,21.39
2022-12-01T05:26:36.114Z,21.17
2022-12-01T05:32:58.566Z,21.02
2022-12-01T05:39:25.789Z,20.91
2022-12-01T05:45:57.853Z,20.85
2022-12-01T05:52:23.751Z,20.6
2022-12-01T05:58:51.789Z,20.57
2022-12-01T06:05:19.741Z,20.42
2022-12-01T06:11:50.084Z,20.33
2022-12-01T06:18:18.032Z,20.52
2022-12-01T06:24:41.331Z,21.44
2022-12-01T06:31:07.720Z,21.72
2022-12-01T06:37:34.835Z,22.18
2022-12-01T06:44:03.899Z,22.32
2022-12-01T06:50:29.612Z,22.65
2022-12-01T06:56:52.764Z,22.8
2022-12-01T07:03:15.838Z,22.83
2022-12-01T07:09:51.890Z,22.82
2022-12-01T07:16:23.722Z,22.57
2022-12-01T07:22:46.791Z,22.69
2022-12-01T07:29:16.609Z,22.65
2022-12-01T07:35:46.233Z,22.62
2022-12-01T07:42:22.825Z,22.62
2022-12-01T07:49:01.227Z,22.55
2022-12-01T07:55:43.186Z,22.39
2022-12-01T08:02:21.918Z,22.23
2022-12-01T08:08:52.855Z,22.1
2022-12-01T08:15:21.933Z,21.95
2022-12-01T08:21:52.788Z,21.85
2022-12-01T08:28:24.615Z,21.7
2022-12-01T08:34:53.640Z,21.63
2022-12-01T08:41:24.794Z,21.54
2022-12-01T08:47:56.609Z,21.49
2022-12-01T08:54:31.303Z,21.44
2022-12-01T09:01:10.066Z,21.36
2022-12-01T09:07:41.245Z,21.34
2022-12-01T09:14:25.761Z,21.42
2022-12-01T09:21:08.617Z,21.48
2022-12-01T09:27:49.066Z,21.43
2022-12-01T09:34:24.877Z,21.32
2022-12-01T09:41:10.977Z,21.28
2022-12-01T09:48:19.043Z,21.05
2022-12-01T09:55:01.873Z,21.07
2022-12-01T10:01:50.424Z,21.16
2022-12-01T10:08:58.057Z,21.07
2022-12-01T10:16:25.769Z,20.76
2022-12-01T10:24:49.290Z,20.37
2022-12-01T10:33:16.756Z,20.2
2022-12-01T10:41:15.191Z,20.21
2022-12-01T10:49:14.435Z,20.11
2022-12-01T10:57:15.374Z,20.09
2022-12-01T11:05:19.543Z,20.09
2022-12-01T11:13:24.831Z,20.08
2022-12-01T11:21:46.223Z,20.07
2022-12-01T11:29:53.263Z,19.99
2022-12-01T11:37:50.535Z,20.01
2022-12-01T11:46:03.989Z,19.99
2022-12-01T11:54:11.293Z,19.99
2022-12-01T12:02:14.299Z,20.05
2022-12-01T12:10:23.321Z,19.93
2022-12-01T12:18:36.312Z,19.8
2022-12-01T12:26:46.162Z,19.82
2022-12-01T12:35:14.130Z,19.99
2022-12-01T12:43:23.132Z,19.98
2022-12-01T12:51:32.741Z,20.14
2022-12-01T12:59:49.144Z,20.16
2022-12-01T13:08:11.166Z,19.95
2022-12-01T13:16:35.395Z,19.85
2022-12-01T13:24:58.152Z,19.91
2022-12-01T13:33:03.802Z,20.03
2022-12-01T13:41:07.651Z,20.03
2022-12-01T13:49:30.243Z,19.91
2022-12-01T13:57:35.337Z,19.81
2022-12-01T14:05:43.491Z,19.88
2022-12-01T14:14:10.343Z,19.72
2022-12-01T14:22:38.307Z,19.73
2022-12-01T14:31:06.810Z,19.7
2022-12-01T14:39:14.151Z,19.91
2022-12-01T14:47:09.790Z,19.6
2022-12-01T14:55:22.765Z,19.63
2022-12-01T15:03:31.825Z,19.75
2022-12-01T15:11:33.104Z,19.67
2022-12-01T15:19:21.079Z,19.77
2022-12-01T15:27:19.274Z,19.59
2022-12-01T15:35:27.555Z,19.58
2022-12-01T15:43:23.185Z,19.61
2022-12-01T15:51:28.941Z,19.71
2022-12-01T15:59:42.169Z,19.79
2022-12-01T16:08:12.444Z,19.74
2022-12-01T16:16:06.283Z,19.68
2022-12-01T16:24:10.287Z,19.65
2022-12-01T16:32:19.645Z,19.74
2022-12-01T16:40:27.566Z,19.66
2022-12-01T16:48:16.741Z,19.63
2022-12-01T16:55:56.461Z,19.64
2022-12-01T17:03:10.761Z,19.56
2022-12-01T17:10:50.203Z,19.55
2022-12-01T17:18:23.443Z,19.58
2022-12-01T17:25:59.420Z,19.58
2022-12-01T17:33:38.795Z,19.68
2022-12-01T17:41:14.137Z,19.69
2022-12-01T17:48:52.281Z,19.61
2022-12-01T17:56:41.804Z,19.71
2022-12-01T18:04:22.489Z,19.63
2022-12-01T18:12:03.442Z,19.59
2022-12-01T18:19:36.868Z,19.55
2022-12-01T18:27:15.753Z,19.66
2022-12-01T18:34:55.861Z,19.53
2022-12-01T18:42:39.540Z,19.53
2022-12-01T18:50:17.914Z,19.46
2022-12-01T18:57:49.147Z,19.47
2022-12-01T19:05:20.874Z,19.55
2022-12-01T19:12:51.525Z,19.6
2022-12-01T19:20:19.444Z,19.5
2022-12-01T19:27:51.751Z,19.56
2022-12-01T19:35:09.484Z,19.62
2022-12-01T19:42:48.014Z,19.65
2022-12-01T19:50:26.833Z,19.63
2022-12-01T19:58:15.695Z,19.58
2022-12-01T20:05:39.579Z,19.45
2022-12-01T20:13:08.799Z,19.5
2022-12-01T20:20:42.156Z,19.48
2022-12-01T20:28:16.835Z,19.44
2022-12-01T20:35:43.480Z,19.48
2022-12-01T20:43:15.128Z,19.45
2022-12-01T20:50:26.361Z,19.4
2022-12-01T20:57:46.183Z,19.44
2022-12-01T21:05:04.960Z,19.44
2022-12-01T21:12:37.020Z,19.4
2022-12-01T21:20:22.806Z,19.37
2022-12-01T21:27:41.357Z,19.31
2022-12-01T21:35:19.581Z,19.32
2022-12-01T21:42:51.468Z,19.32
2022-12-01T21:50:37.968Z,19.28
2022-12-01T21:58:11.524Z,19.28
2022-12-01T22:14:12.601Z,19.22
2022-12-01T22:22:11.696Z,19.21
2022-12-01T22:30:03.268Z,19.2
2022-12-01T22:38:06.499Z,19.15
2022-12-01T22:45:47.793Z,19.16
2022-12-01T22:53:42.811Z,19.27
2022-12-01T23:01:23.499Z,19.3
2022-12-01T23:08:50.918Z,19.4
2022-12-01T23:16:47.571Z,19.49
2022-12-01T23:24:40.926Z,19.56
2022-12-01T23:32:23.522Z,19.59
2022-12-01T23:39:57.237Z,19.43
2022-12-01T23:47:37.028Z,19.3
2022-12-01T23:55:11.878Z,19.25
